Time,TemperatureF,DewpointF,PressureIn,WindDirection,WindDirectionDegrees,WindSpeedMPH,WindSpeedGustMPH,Humidity,HourlyPrecipIn,Conditions,Clouds,dailyrainin,SoftwareType,DateUTC
2013-02-12 00:00:00,31.8,30.8,29.62,WNW,290,0.0,0.0,96,0.00,RA,,0.00,WeatherDisplay:10.37,2013-02-12 05:00:00,
2013-02-12 00:05:00,31.8,30.8,29.61,WNW,290,0.0,0.0,96,0.00,RA,,0.00,WeatherDisplay:10.37,2013-02-12 05:05:00,
2013-02-12 00:10:00,31.8,30.8,29.61,WNW,290,0.0,0.0,96,0.00,OVC,,0.00,WeatherDisplay:10.37,2013-02-12 05:10:00,
2013-02-12 00:15:00,31.8,30.8,29.61,WNW,290,0.0,0.0,96,0.00,OVC,,0.00,WeatherDisplay:10.37,2013-02-12 05:15:00,
2013-02-12 00:20:00,31.8,30.8,29.60,WNW,290,0.0,0.0,96,0.00,OVC,,0.00,WeatherDisplay:10.37,2013-02-12 05:20:00,
2013-02-12 00:25:00,31.8,30.8,29.61,WNW,290,0.0,0.0,96,0.00,OVC,,0.00,WeatherDisplay:10.37,2013-02-12 05:25:00,
2013-02-12 00:30:00,31.8,30.8,29.60,WNW,290,0.0,0.0,96,0.00,OVC,,0.00,WeatherDisplay:10.37,2013-02-12 05:30:00,
2013-02-12 00:35:00,31.8,30.8,29.59,WNW,290,0.0,0.0,96,0.00,OVC,,0.00,WeatherDisplay:10.37,2013-02-12 05:35:00,
2013-02-12 00:40:00,31.8,30.8,29.59,WNW,290,0.0,0.0,96,0.00,OVC,,0.00,WeatherDisplay:10.37,2013-02-12 05:40:00,
2013-02-12 00:45:00,31.7,30.7,29.59,WNW,290,0.0,0.0,96,0.00,OVC,,0.00,WeatherDisplay:10.37,2013-02-12 05:45:00,
2013-02-12 00:55:00,31.7,30.7,29.59,WNW,290,0.0,0.0,96,0.00,OVC,,0.00,WeatherDisplay:10.37,2013-02-12 05:55:00,
2013-02-12 01:00:00,31.7,30.7,29.58,WNW,290,0.0,0.0,96,0.00,OVC,,0.00,WeatherDisplay:10.37,2013-02-12 06:00:00,
2013-02-12 01:05:00,31.7,30.7,29.58,WNW,290,0.0,0.0,96,0.00,OVC,,0.00,WeatherDisplay:10.37,2013-02-12 06:05:00,
2013-02-12 01:10:00,31.7,30.7,29.57,WNW,290,0.0,0.0,96,0.00,OVC,,0.00,WeatherDisplay:10.37,2013-02-12 06:10:00,
2013-02-12 01:15:00,31.6,30.6,29.58,WNW,290,0.0,0.0,96,0.00,OVC,,0.00,WeatherDisplay:10.37,2013-02-12 06:15:00,
2013-02-12 01:20:00,31.6,30.6,29.58,WNW,290,0.0,0.0,96,0.00,OVC,,0.00,WeatherDisplay:10.37,2013-02-12 06:20:00,
2013-02-12 01:25:00,31.6,30.6,29.59,WNW,290,0.0,0.0,96,0.00,OVC,,0.00,WeatherDisplay:10.37,2013-02-12 06:25:00,
2013-02-12 01:30:00,31.6,30.6,29.59,WNW,290,0.0,0.0,96,0.00,OVC,,0.00,WeatherDisplay:10.37,2013-02-12 06:30:00,
2013-02-12 01:35:00,31.6,30.6,29.60,WNW,290,0.0,0.0,96,0.00,OVC,,0.00,WeatherDisplay:10.37,2013-02-12 06:35:00,
2013-02-12 01:40:00,31.6,30.6,29.60,WNW,290,0.0,0.0,96,0.00,OVC,,0.00,WeatherDisplay:10.37,2013-02-12 06:40:00,
2013-02-12 01:45:00,31.5,30.5,29.60,WNW,290,0.0,0.0,96,0.00,OVC,,0.00,WeatherDisplay:10.37,2013-02-12 06:45:00,
2013-02-12 01:50:00,31.4,30.4,29.60,WNW,290,0.0,0.0,96,0.00,OVC,,0.00,WeatherDisplay:10.37,2013-02-12 06:50:00,
2013-02-12 01:55:00,31.4,30.4,29.61,WNW,290,0.0,0.0,96,0.00,OVC,,0.00,WeatherDisplay:10.37,2013-02-12 06:55:00,
2013-02-12 02:00:00,31.3,30.0,29.61,WNW,289,0.0,0.0,95,0.00,OVC,,0.00,WeatherDisplay:10.37,2013-02-12 07:00:00,
2013-02-12 02:10:00,31.4,30.4,29.61,WNW,303,0.0,2.0,96,0.00,OVC,,0.00,WeatherDisplay:10.37,2013-02-12 07:10:00,
2013-02-12 02:15:00,31.6,30.6,29.60,ESE,119,0.0,0.0,96,0.00,OVC,,0.00,WeatherDisplay:10.37,2013-02-12 07:15:00,
2013-02-12 02:20:00,31.7,30.7,29.60,SE,127,0.0,2.0,96,0.00,FEW,,0.00,WeatherDisplay:10.37,2013-02-12 07:20:00,
2013-02-12 02:25:00,31.9,30.9,29.60,SW,232,0.0,0.0,96,0.00,FEW,,0.00,WeatherDisplay:10.37,2013-02-12 07:25:00,
2013-02-12 02:30:00,32.0,31.0,29.60,West,259,0.0,2.0,96,0.00,FEW,,0.00,WeatherDisplay:10.37,2013-02-12 07:30:00,
2013-02-12 02:35:00,32.0,31.0,29.60,NE,47,0.0,0.0,96,0.00,FEW,,0.00,WeatherDisplay:10.37,2013-02-12 07:35:00,
2013-02-12 02:40:00,32.1,31.1,29.60,East,80,0.0,0.0,96,0.00,FEW,,0.00,WeatherDisplay:10.37,2013-02-12 07:40:00,
2013-02-12 02:45:00,32.1,31.1,29.60,East,92,0.0,0.0,96,0.00,FEW,,0.00,WeatherDisplay:10.37,2013-02-12 07:45:00,
2013-02-12 02:50:00,32.1,31.1,29.60,East,92,0.0,0.0,96,0.00,FEW,,0.00,WeatherDisplay:10.37,2013-02-12 07:50:00,
2013-02-12 02:55:00,32.1,31.1,29.60,East,92,0.0,0.0,96,0.00,FEW,,0.00,WeatherDisplay:10.37,2013-02-12 07:55:00,
2013-02-12 03:00:00,32.1,31.1,29.60,ENE,71,0.0,0.0,96,0.00,FEW,,0.00,WeatherDisplay:10.37,2013-02-12 08:00:00,
2013-02-12 03:05:00,32.0,31.0,29.60,NE,35,0.0,0.0,96,0.00,FEW,,0.00,WeatherDisplay:10.37,2013-02-12 08:05:00,
2013-02-12 03:10:00,32.0,30.9,29.60,WSW,249,0.0,2.0,96,0.00,FEW,,0.00,WeatherDisplay:10.37,2013-02-12 08:10:00,
2013-02-12 03:15:00,31.9,30.9,29.60,SSW,203,0.0,0.0,96,0.00,FEW,,0.00,WeatherDisplay:10.37,2013-02-12 08:15:00,
2013-02-12 03:20:00,31.9,30.9,29.60,SE,143,0.0,0.0,96,0.00,CLR,,0.00,WeatherDisplay:10.37,2013-02-12 08:20:00,
2013-02-12 03:25:00,31.9,30.9,29.60,SE,129,0.0,0.0,96,0.00,CLR,,0.00,WeatherDisplay:10.37,2013-02-12 08:25:00,
2013-02-12 03:30:00,31.9,30.9,29.60,SE,145,0.0,0.0,96,0.00,CLR,,0.00,WeatherDisplay:10.37,2013-02-12 08:30:00,
2013-02-12 03:35:00,31.9,30.9,29.60,SSE,156,0.0,1.0,96,0.00,CLR,,0.00,WeatherDisplay:10.37,2013-02-12 08:35:00,
2013-02-12 03:40:00,31.9,30.9,29.60,SSE,167,0.0,0.0,96,0.00,CLR,,0.00,WeatherDisplay:10.37,2013-02-12 08:40:00,
2013-02-12 03:45:00,31.9,30.9,29.61,SSE,166,0.0,0.0,96,0.00,CLR,,0.00,WeatherDisplay:10.37,2013-02-12 08:45:00,
2013-02-12 03:50:00,31.9,30.9,29.61,SSE,165,0.0,0.0,96,0.00,CLR,,0.00,WeatherDisplay:10.37,2013-02-12 08:50:00,
2013-02-12 03:55:00,31.7,30.4,29.61,SSE,164,0.0,0.0,95,0.00,CLR,,0.00,WeatherDisplay:10.37,2013-02-12 08:55:00,
2013-02-12 04:00:00,31.5,30.2,29.60,SSE,163,0.0,0.0,95,0.00,CLR,,0.00,WeatherDisplay:10.37,2013-02-12 09:00:00,
2013-02-12 04:05:00,31.4,30.1,29.61,SSE,163,0.0,0.0,95,0.00,CLR,,0.00,WeatherDisplay:10.37,2013-02-12 09:05:00,
2013-02-12 04:10:00,31.2,30.0,29.60,SSE,163,0.0,0.0,95,0.00,CLR,,0.00,WeatherDisplay:10.37,2013-02-12 09:10:00,
2013-02-12 04:15:00,31.0,29.7,29.61,SSE,163,0.0,0.0,95,0.00,CLR,,0.00,WeatherDisplay:10.37,2013-02-12 09:15:00,
2013-02-12 04:20:00,30.8,29.5,29.61,SSE,158,0.0,0.0,95,0.00,BKN,,0.00,WeatherDisplay:10.37,2013-02-12 09:20:00,
2013-02-12 04:25:00,30.7,29.4,29.61,SSE,149,0.0,0.0,95,0.00,BKN,,0.00,WeatherDisplay:10.37,2013-02-12 09:25:00,
2013-02-12 04:30:00,30.6,29.3,29.61,SE,146,0.0,0.0,95,0.00,BKN,,0.00,WeatherDisplay:10.37,2013-02-12 09:30:00,
2013-02-12 04:35:00,30.6,29.3,29.62,SE,146,0.0,0.0,95,0.00,BKN,,0.00,WeatherDisplay:10.37,2013-02-12 09:35:00,
2013-02-12 04:40:00,30.6,29.3,29.62,SE,146,0.0,0.0,95,0.00,BKN,,0.00,WeatherDisplay:10.37,2013-02-12 09:40:00,
2013-02-12 04:45:00,30.4,29.1,29.62,SE,146,0.0,0.0,95,0.00,BKN,,0.00,WeatherDisplay:10.37,2013-02-12 09:45:00,
2013-02-12 04:50:00,30.2,28.9,29.62,SE,146,0.0,0.0,95,0.00,BKN,,0.00,WeatherDisplay:10.37,2013-02-12 09:50:00,
2013-02-12 05:00:00,30.1,28.8,29.62,SE,146,0.0,0.0,95,0.00,BKN,,0.00,WeatherDisplay:10.37,2013-02-12 10:00:00,
2013-02-12 05:05:00,29.9,28.4,29.62,SE,146,0.0,0.0,94,0.00,BKN,,0.00,WeatherDisplay:10.37,2013-02-12 10:05:00,
2013-02-12 05:10:00,29.7,28.2,29.62,SE,146,0.0,0.0,94,0.00,BKN,,0.00,WeatherDisplay:10.37,2013-02-12 10:10:00,
2013-02-12 05:15:00,29.5,28.0,29.62,SE,146,0.0,0.0,94,0.00,BKN,,0.00,WeatherDisplay:10.37,2013-02-12 10:15:00,
2013-02-12 05:20:00,29.5,28.0,29.62,SE,146,0.0,0.0,94,0.00,CLR,,0.00,WeatherDisplay:10.37,2013-02-12 10:20:00,
2013-02-12 05:25:00,29.5,28.0,29.62,SE,146,0.0,0.0,94,0.00,CLR,,0.00,WeatherDisplay:10.37,2013-02-12 10:25:00,
2013-02-12 05:30:00,29.4,27.9,29.62,SE,146,0.0,0.0,94,0.00,CLR,,0.00,WeatherDisplay:10.37,2013-02-12 10:30:00,
2013-02-12 05:35:00,29.4,27.9,29.62,SE,146,0.0,0.0,94,0.00,CLR,,0.00,WeatherDisplay:10.37,2013-02-12 10:35:00,
2013-02-12 05:40:00,29.3,27.8,29.62,SE,146,0.0,0.0,94,0.00,CLR,,0.00,WeatherDisplay:10.37,2013-02-12 10:40:00,
2013-02-12 05:45:00,29.2,27.7,29.62,SE,146,0.0,0.0,94,0.00,CLR,,0.00,WeatherDisplay:10.37,2013-02-12 10:45:00,
2013-02-12 05:50:00,29.0,27.5,29.63,SE,146,0.0,0.0,94,0.00,CLR,,0.00,WeatherDisplay:10.37,2013-02-12 10:50:00,
2013-02-12 06:00:00,28.9,27.4,29.63,SSE,160,0.0,0.0,94,0.00,CLR,,0.00,WeatherDisplay:10.37,2013-02-12 11:00:00,
2013-02-12 06:05:00,28.8,27.3,29.62,WSW,252,0.0,0.0,94,0.00,CLR,,0.00,WeatherDisplay:10.37,2013-02-12 11:05:00,
2013-02-12 06:10:00,28.9,27.4,29.63,West,276,0.0,0.0,94,0.00,CLR,,0.00,WeatherDisplay:10.37,2013-02-12 11:10:00,
2013-02-12 06:15:00,29.1,27.9,29.63,West,281,0.0,0.0,95,0.00,CLR,,0.00,WeatherDisplay:10.37,2013-02-12 11:15:00,
2013-02-12 06:20:00,29.4,28.1,29.63,West,280,0.0,0.0,95,0.00,BKN,,0.00,WeatherDisplay:10.37,2013-02-12 11:20:00,
2013-02-12 06:25:00,29.9,28.6,29.63,WNW,285,0.0,0.0,95,0.00,BKN,,0.00,WeatherDisplay:10.37,2013-02-12 11:25:00,
2013-02-12 06:30:00,30.0,28.7,29.63,WNW,300,0.0,0.0,95,0.00,BKN,,0.00,WeatherDisplay:10.37,2013-02-12 11:30:00,
2013-02-12 06:35:00,30.2,28.9,29.63,NNE,22,0.0,0.0,95,0.00,BKN,,0.00,WeatherDisplay:10.37,2013-02-12 11:35:00,
2013-02-12 06:40:00,30.5,29.2,29.63,ESE,107,0.0,3.0,95,0.00,BKN,,0.00,WeatherDisplay:10.37,2013-02-12 11:40:00,
2013-02-12 06:45:00,30.7,29.4,29.63,SSE,152,0.0,1.0,95,0.00,BKN,,0.00,WeatherDisplay:10.37,2013-02-12 11:45:00,
2013-02-12 06:50:00,30.8,29.5,29.63,South,174,0.0,2.0,95,0.00,BKN,,0.00,WeatherDisplay:10.37,2013-02-12 11:50:00,
2013-02-12 06:55:00,31.0,29.7,29.63,SSW,210,0.0,0.0,95,0.00,BKN,,0.00,WeatherDisplay:10.37,2013-02-12 11:55:00,
2013-02-12 07:00:00,31.2,30.0,29.63,South,181,0.0,0.0,95,0.00,BKN,,0.00,WeatherDisplay:10.37,2013-02-12 12:00:00,
2013-02-12 07:05:00,31.5,30.2,29.63,SSE,162,0.0,2.0,95,0.00,BKN,,0.00,WeatherDisplay:10.37,2013-02-12 12:05:00,
2013-02-12 07:10:00,31.8,30.5,29.63,East,99,0.0,2.0,95,0.00,BKN,,0.00,WeatherDisplay:10.37,2013-02-12 12:10:00,
2013-02-12 07:15:00,32.0,30.7,29.63,East,85,0.0,0.0,95,0.00,BKN,,0.00,WeatherDisplay:10.37,2013-02-12 12:15:00,
2013-02-12 07:20:00,32.1,30.8,29.63,East,98,0.0,2.0,95,0.00,OVC,,0.00,WeatherDisplay:10.37,2013-02-12 12:20:00,
2013-02-12 07:25:00,32.2,30.9,29.63,West,276,0.0,0.0,95,0.00,OVC,,0.00,WeatherDisplay:10.37,2013-02-12 12:25:00,
2013-02-12 07:30:00,32.3,31.0,29.64,NNW,348,0.0,0.0,95,0.00,OVC,,0.00,WeatherDisplay:10.37,2013-02-12 12:30:00,
2013-02-12 07:35:00,32.4,31.1,29.64,NNE,32,0.0,1.0,95,0.00,OVC,,0.00,WeatherDisplay:10.37,2013-02-12 12:35:00,
2013-02-12 07:40:00,32.5,31.2,29.64,SSE,159,0.0,2.0,95,0.00,OVC,,0.00,WeatherDisplay:10.37,2013-02-12 12:40:00,
2013-02-12 07:45:00,32.5,31.2,29.64,East,86,0.0,0.0,95,0.00,OVC,,0.00,WeatherDisplay:10.37,2013-02-12 12:45:00,
2013-02-12 07:50:00,32.6,31.3,29.64,ESE,120,0.0,0.0,95,0.00,OVC,,0.00,WeatherDisplay:10.37,2013-02-12 12:50:00,
2013-02-12 07:55:00,32.6,31.3,29.64,SSE,147,0.0,0.0,95,0.00,OVC,,0.00,WeatherDisplay:10.37,2013-02-12 12:55:00,
2013-02-12 08:00:00,32.6,31.3,29.64,SE,125,0.0,0.0,95,0.00,OVC,,0.00,WeatherDisplay:10.37,2013-02-12 13:00:00,
2013-02-12 08:10:00,32.7,31.4,29.64,SSE,155,0.0,0.0,95,0.00,OVC,,0.00,WeatherDisplay:10.37,2013-02-12 13:10:00,
2013-02-12 08:15:00,32.8,31.5,29.65,SE,132,0.0,0.0,95,0.00,OVC,,0.00,WeatherDisplay:10.37,2013-02-12 13:15:00,
2013-02-12 08:20:00,32.9,31.6,29.64,SE,132,0.0,0.0,95,0.00,BKN,,0.00,WeatherDisplay:10.37,2013-02-12 13:20:00,
2013-02-12 08:25:00,32.9,31.7,29.64,SE,132,0.0,0.0,95,0.00,BKN,,0.00,WeatherDisplay:10.37,2013-02-12 13:25:00,
2013-02-12 08:30:00,33.1,31.8,29.64,SE,132,0.0,0.0,95,0.00,BKN,,0.00,WeatherDisplay:10.37,2013-02-12 13:30:00,
2013-02-12 08:35:00,33.2,31.9,29.64,SE,132,0.0,0.0,95,0.00,BKN,,0.00,WeatherDisplay:10.37,2013-02-12 13:35:00,
2013-02-12 08:40:00,33.2,31.9,29.64,SE,133,0.0,0.0,95,0.00,BKN,,0.00,WeatherDisplay:10.37,2013-02-12 13:40:00,
2013-02-12 08:45:00,33.4,32.1,29.64,SE,144,0.0,2.0,95,0.00,BKN,,0.00,WeatherDisplay:10.37,2013-02-12 13:45:00,
2013-02-12 08:50:00,33.5,32.2,29.65,SSE,157,0.0,0.0,95,0.00,BKN,,0.00,WeatherDisplay:10.37,2013-02-12 13:50:00,
2013-02-12 08:55:00,33.6,32.6,29.65,SSE,168,0.0,2.0,96,0.00,BKN,,0.00,WeatherDisplay:10.37,2013-02-12 13:55:00,
2013-02-12 09:00:00,33.7,32.5,29.65,WSW,251,0.0,0.0,95,0.00,BKN,,0.00,WeatherDisplay:10.37,2013-02-12 14:00:00,
2013-02-12 09:05:00,33.9,32.6,29.65,NNW,336,0.0,0.0,95,0.00,BKN,,0.00,WeatherDisplay:10.37,2013-02-12 14:05:00,
2013-02-12 09:10:00,34.1,32.8,29.65,SW,217,0.0,0.0,95,0.00,BKN,,0.00,WeatherDisplay:10.37,2013-02-12 14:10:00,
2013-02-12 09:20:00,34.6,33.0,29.66,West,261,0.0,0.0,94,0.00,FEW,,0.00,WeatherDisplay:10.37,2013-02-12 14:20:00,
2013-02-12 09:25:00,34.8,33.5,29.66,West,261,0.0,0.0,95,0.00,FEW,,0.00,WeatherDisplay:10.37,2013-02-12 14:25:00,
2013-02-12 09:30:00,34.9,33.3,29.66,WSW,248,0.0,4.0,94,0.00,FEW,,0.00,WeatherDisplay:10.37,2013-02-12 14:30:00,
2013-02-12 09:35:00,35.1,33.3,29.65,SSW,194,0.0,4.0,93,0.00,FEW,,0.00,WeatherDisplay:10.37,2013-02-12 14:35:00,
2013-02-12 09:40:00,35.4,33.8,29.65,South,172,0.0,1.0,94,0.00,FEW,,0.00,WeatherDisplay:10.37,2013-02-12 14:40:00,
2013-02-12 09:45:00,35.5,33.4,29.65,South,176,0.0,0.0,92,0.00,FEW,,0.00,WeatherDisplay:10.37,2013-02-12 14:45:00,
2013-02-12 09:50:00,35.8,33.2,29.65,SW,225,2.0,7.0,90,0.00,FEW,,0.00,WeatherDisplay:10.37,2013-02-12 14:50:00,
2013-02-12 09:55:00,36.2,33.0,29.66,WNW,292,0.0,5.0,88,0.00,FEW,,0.00,WeatherDisplay:10.37,2013-02-12 14:55:00,
2013-02-12 10:00:00,36.6,32.5,29.65,West,275,2.0,5.0,85,0.00,FEW,,0.00,WeatherDisplay:10.37,2013-02-12 15:00:00,
2013-02-12 10:05:00,37.1,33.5,29.65,SSW,206,0.0,3.0,87,0.00,FEW,,0.00,WeatherDisplay:10.37,2013-02-12 15:05:00,
2013-02-12 10:10:00,37.2,33.7,29.65,South,176,0.0,0.0,87,0.00,FEW,,0.00,WeatherDisplay:10.37,2013-02-12 15:10:00,
2013-02-12 10:15:00,37.4,32.7,29.65,SSW,211,0.0,4.0,83,0.00,FEW,,0.00,WeatherDisplay:10.37,2013-02-12 15:15:00,
2013-02-12 10:20:00,37.6,32.3,29.65,SW,225,2.0,5.0,81,0.00,FEW,,0.00,WeatherDisplay:10.37,2013-02-12 15:20:00,
2013-02-12 10:25:00,38.1,32.1,29.65,SSW,203,1.0,12.0,79,0.00,FEW,,0.00,WeatherDisplay:10.37,2013-02-12 15:25:00,
2013-02-12 10:30:00,38.4,32.5,29.65,WSW,238,5.0,9.0,79,0.00,FEW,,0.00,WeatherDisplay:10.37,2013-02-12 15:30:00,
2013-02-12 10:35:00,38.7,31.8,29.66,SW,233,3.0,9.0,76,0.00,FEW,,0.00,WeatherDisplay:10.37,2013-02-12 15:35:00,
2013-02-12 10:40:00,38.9,32.3,29.66,WSW,241,0.0,5.0,77,0.00,FEW,,0.00,WeatherDisplay:10.37,2013-02-12 15:40:00,
2013-02-12 10:45:00,39.0,31.7,29.65,WSW,249,1.0,7.0,75,0.00,FEW,,0.00,WeatherDisplay:10.37,2013-02-12 15:45:00,
2013-02-12 10:50:00,39.1,32.2,29.65,SW,217,1.0,5.0,76,0.00,FEW,,0.00,WeatherDisplay:10.37,2013-02-12 15:50:00,
2013-02-12 10:55:00,39.1,30.8,29.65,SW,215,5.0,14.0,72,0.00,FEW,,0.00,WeatherDisplay:10.37,2013-02-12 15:55:00,
2013-02-12 11:00:00,39.5,31.6,29.65,West,259,0.0,13.0,73,0.00,FEW,,0.00,WeatherDisplay:10.37,2013-02-12 16:00:00,
2013-02-12 11:05:00,39.6,31.7,29.65,WSW,258,3.0,9.0,73,0.00,FEW,,0.00,WeatherDisplay:10.37,2013-02-12 16:05:00,
2013-02-12 11:10:00,39.9,30.5,29.65,SW,227,5.0,13.0,69,0.00,FEW,,0.00,WeatherDisplay:10.37,2013-02-12 16:10:00,
2013-02-12 11:15:00,40.2,31.5,29.65,SSW,205,2.0,8.0,71,0.00,FEW,,0.00,WeatherDisplay:10.37,2013-02-12 16:15:00,
2013-02-12 11:20:00,40.5,31.5,29.65,West,268,3.0,7.0,70,0.00,BKN,,0.00,WeatherDisplay:10.37,2013-02-12 16:20:00,
2013-02-12 11:25:00,40.7,30.9,29.65,WSW,254,2.0,8.0,68,0.00,BKN,,0.00,WeatherDisplay:10.37,2013-02-12 16:25:00,
2013-02-12 11:30:00,40.8,30.7,29.65,WSW,246,2.0,8.0,67,0.00,BKN,,0.00,WeatherDisplay:10.37,2013-02-12 16:30:00,
2013-02-12 11:35:00,41.0,31.3,29.65,SW,226,2.0,10.0,68,0.00,BKN,,0.00,WeatherDisplay:10.37,2013-02-12 16:35:00,
2013-02-12 11:45:00,41.4,30.5,29.65,WSW,251,6.0,13.0,65,0.00,BKN,,0.00,WeatherDisplay:10.37,2013-02-12 16:45:00,
2013-02-12 11:50:00,41.3,30.0,29.66,WNW,295,1.0,13.0,64,0.00,BKN,,0.00,WeatherDisplay:10.37,2013-02-12 16:50:00,
2013-02-12 11:55:00,41.3,30.4,29.66,WNW,283,1.0,8.0,65,0.00,BKN,,0.00,WeatherDisplay:10.37,2013-02-12 16:55:00,
2013-02-12 12:00:00,41.6,29.5,29.66,West,275,8.0,14.0,62,0.00,BKN,,0.00,WeatherDisplay:10.37,2013-02-12 17:00:00,
2013-02-12 12:05:00,41.8,29.7,29.65,West,279,3.0,7.0,62,0.00,BKN,,0.00,WeatherDisplay:10.37,2013-02-12 17:05:00,
2013-02-12 12:10:00,41.9,29.4,29.65,WSW,252,3.0,12.0,61,0.00,BKN,,0.00,WeatherDisplay:10.37,2013-02-12 17:10:00,
2013-02-12 12:15:00,41.8,29.3,29.66,SW,218,3.0,8.0,61,0.00,BKN,,0.00,WeatherDisplay:10.37,2013-02-12 17:15:00,
2013-02-12 12:20:00,41.7,29.3,29.66,West,263,6.0,14.0,61,0.00,BKN,,0.00,WeatherDisplay:10.37,2013-02-12 17:20:00,
2013-02-12 12:25:00,41.7,29.2,29.65,WNW,289,6.0,10.0,61,0.00,BKN,,0.00,WeatherDisplay:10.37,2013-02-12 17:25:00,
2013-02-12 12:30:00,41.8,29.3,29.66,WNW,286,1.0,10.0,61,0.00,BKN,,0.00,WeatherDisplay:10.37,2013-02-12 17:30:00,
2013-02-12 12:35:00,41.9,29.8,29.66,WNW,283,1.0,7.0,62,0.00,BKN,,0.00,WeatherDisplay:10.37,2013-02-12 17:35:00,
2013-02-12 12:40:00,42.3,30.2,29.66,WSW,257,2.0,8.0,62,0.00,BKN,,0.00,WeatherDisplay:10.37,2013-02-12 17:40:00,
2013-02-12 12:45:00,42.5,29.6,29.66,West,280,6.0,16.0,60,0.00,BKN,,0.00,WeatherDisplay:10.37,2013-02-12 17:45:00,
2013-02-12 12:50:00,42.5,30.0,29.66,West,274,3.0,9.0,61,0.00,BKN,,0.00,WeatherDisplay:10.37,2013-02-12 17:50:00,
2013-02-12 12:55:00,42.8,29.9,29.66,West,277,2.0,8.0,60,0.00,BKN,,0.00,WeatherDisplay:10.37,2013-02-12 17:55:00,
2013-02-12 13:00:00,43.2,29.8,29.67,WSW,256,5.0,12.0,59,0.00,BKN,,0.00,WeatherDisplay:10.37,2013-02-12 18:00:00,
2013-02-12 13:05:00,43.1,29.8,29.66,WSW,254,6.0,14.0,59,0.00,BKN,,0.00,WeatherDisplay:10.37,2013-02-12 18:05:00,
2013-02-12 13:10:00,43.0,29.7,29.66,West,267,3.0,12.0,59,0.00,BKN,,0.00,WeatherDisplay:10.37,2013-02-12 18:10:00,
2013-02-12 13:15:00,42.9,29.5,29.66,West,280,2.0,7.0,59,0.00,BKN,,0.00,WeatherDisplay:10.37,2013-02-12 18:15:00,
2013-02-12 13:20:00,42.8,29.9,29.66,WNW,282,2.0,10.0,60,0.00,BKN,,0.00,WeatherDisplay:10.37,2013-02-12 18:20:00,
2013-02-12 13:25:00,43.1,29.7,29.66,WNW,282,0.0,9.0,59,0.00,BKN,,0.00,WeatherDisplay:10.37,2013-02-12 18:25:00,
2013-02-12 13:30:00,43.3,29.9,29.67,WNW,289,6.0,14.0,59,0.00,BKN,,0.00,WeatherDisplay:10.37,2013-02-12 18:30:00,
2013-02-12 13:35:00,42.9,29.9,29.67,West,263,2.0,10.0,60,0.00,BKN,,0.00,WeatherDisplay:10.37,2013-02-12 18:35:00,
2013-02-12 13:40:00,42.4,29.5,29.67,WSW,254,3.0,10.0,60,0.00,BKN,,0.00,WeatherDisplay:10.37,2013-02-12 18:40:00,
2013-02-12 13:45:00,42.1,30.0,29.67,WSW,253,1.0,4.0,62,0.00,BKN,,0.00,WeatherDisplay:10.37,2013-02-12 18:45:00,
2013-02-12 13:50:00,42.0,29.5,29.67,West,268,3.0,12.0,61,0.00,BKN,,0.00,WeatherDisplay:10.37,2013-02-12 18:50:00,
2013-02-12 13:55:00,41.9,29.4,29.67,WSW,253,2.0,13.0,61,0.00,BKN,,0.00,WeatherDisplay:10.37,2013-02-12 18:55:00,
2013-02-12 14:00:00,41.9,29.8,29.67,West,260,1.0,7.0,62,0.00,BKN,,0.00,WeatherDisplay:10.37,2013-02-12 19:00:00,
2013-02-12 14:05:00,41.8,29.7,29.67,WNW,299,7.0,13.0,62,0.00,BKN,,0.00,WeatherDisplay:10.37,2013-02-12 19:05:00,
2013-02-12 14:10:00,41.7,30.0,29.68,West,260,0.0,12.0,63,0.00,BKN,,0.00,WeatherDisplay:10.37,2013-02-12 19:10:00,
2013-02-12 14:15:00,41.6,30.3,29.68,SSW,201,0.0,10.0,64,0.00,BKN,,0.00,WeatherDisplay:10.37,2013-02-12 19:15:00,
2013-02-12 14:20:00,41.3,29.6,29.68,SW,216,2.0,10.0,63,0.00,BKN,,0.00,WeatherDisplay:10.37,2013-02-12 19:20:00,
2013-02-12 14:25:00,40.9,30.1,29.69,SW,230,0.0,7.0,65,0.00,BKN,,0.00,WeatherDisplay:10.37,2013-02-12 19:25:00,
2013-02-12 14:30:00,40.7,29.8,29.69,SW,224,1.0,6.0,65,0.00,BKN,,0.00,WeatherDisplay:10.37,2013-02-12 19:30:00,
2013-02-12 14:35:00,40.5,29.7,29.69,WSW,248,1.0,12.0,65,0.00,BKN,,0.00,WeatherDisplay:10.37,2013-02-12 19:35:00,
2013-02-12 14:40:00,40.3,29.9,29.69,West,260,0.0,12.0,66,0.00,BKN,,0.00,WeatherDisplay:10.37,2013-02-12 19:40:00,
2013-02-12 14:45:00,40.2,30.5,29.69,WSW,243,2.0,7.0,68,0.00,BKN,,0.00,WeatherDisplay:10.37,2013-02-12 19:45:00,
2013-02-12 14:50:00,40.0,29.9,29.69,SSW,201,0.0,3.0,67,0.00,BKN,,0.00,WeatherDisplay:10.37,2013-02-12 19:50:00,
2013-02-12 14:55:00,39.9,29.8,29.69,SSW,203,0.0,3.0,67,0.00,BKN,,0.00,WeatherDisplay:10.37,2013-02-12 19:55:00,
2013-02-12 15:00:00,39.8,30.1,29.70,WSW,258,1.0,4.0,68,0.00,BKN,,0.00,WeatherDisplay:10.37,2013-02-12 20:00:00,
2013-02-12 15:05:00,39.7,30.0,29.70,West,262,1.0,3.0,68,0.00,BKN,,0.00,WeatherDisplay:10.37,2013-02-12 20:05:00,
2013-02-12 15:10:00,39.7,30.0,29.70,WSW,247,0.0,2.0,68,0.00,BKN,,0.00,WeatherDisplay:10.37,2013-02-12 20:10:00,
2013-02-12 15:15:00,39.6,29.9,29.71,SW,235,0.0,4.0,68,0.00,BKN,,0.00,WeatherDisplay:10.37,2013-02-12 20:15:00,
2013-02-12 15:20:00,39.6,30.2,29.71,WSW,248,0.0,3.0,69,0.00,OVC,,0.00,WeatherDisplay:10.37,2013-02-12 20:20:00,
2013-02-12 15:25:00,39.5,30.2,29.71,West,265,1.0,5.0,69,0.00,OVC,,0.00,WeatherDisplay:10.37,2013-02-12 20:25:00,
2013-02-12 15:30:00,39.3,30.0,29.71,West,272,0.0,2.0,69,0.00,OVC,,0.00,WeatherDisplay:10.37,2013-02-12 20:30:00,
2013-02-12 15:35:00,39.3,29.9,29.71,SSW,193,0.0,2.0,69,0.00,OVC,,0.00,WeatherDisplay:10.37,2013-02-12 20:35:00,
2013-02-12 15:40:00,39.2,29.8,29.72,SSW,200,1.0,5.0,69,0.00,OVC,,0.00,WeatherDisplay:10.37,2013-02-12 20:40:00,
2013-02-12 15:45:00,39.1,30.1,29.72,WSW,241,0.0,6.0,70,0.00,OVC,,0.00,WeatherDisplay:10.37,2013-02-12 20:45:00,
2013-02-12 15:50:00,39.0,30.0,29.71,WSW,246,1.0,6.0,70,0.00,OVC,,0.00,WeatherDisplay:10.37,2013-02-12 20:50:00,
2013-02-12 15:55:00,38.8,30.2,29.72,WSW,239,0.0,2.0,71,0.00,OVC,,0.00,WeatherDisplay:10.37,2013-02-12 20:55:00,
2013-02-12 16:00:00,38.7,30.1,29.71,WSW,238,0.0,3.0,71,0.00,OVC,,0.00,WeatherDisplay:10.37,2013-02-12 21:00:00,
2013-02-12 16:05:00,38.6,30.4,29.71,WSW,247,0.0,0.0,72,0.00,OVC,,0.00,WeatherDisplay:10.37,2013-02-12 21:05:00,
2013-02-12 16:10:00,38.6,30.4,29.71,West,264,1.0,3.0,72,0.00,OVC,,0.00,WeatherDisplay:10.37,2013-02-12 21:10:00,
2013-02-12 16:20:00,38.6,30.3,29.71,WSW,250,0.0,5.0,72,0.00,OVC,,0.00,WeatherDisplay:10.37,2013-02-12 21:20:00,
2013-02-12 16:25:00,38.4,30.5,29.71,SW,214,0.0,0.0,73,0.00,OVC,,0.00,WeatherDisplay:10.37,2013-02-12 21:25:00,
2013-02-12 16:30:00,38.3,30.4,29.71,SW,233,1.0,4.0,73,0.00,OVC,,0.00,WeatherDisplay:10.37,2013-02-12 21:30:00,
2013-02-12 16:35:00,38.2,30.3,29.71,West,272,0.0,2.0,73,0.00,OVC,,0.00,WeatherDisplay:10.37,2013-02-12 21:35:00,
2013-02-12 16:40:00,38.2,30.0,29.71,West,268,2.0,8.0,72,0.00,OVC,,0.00,WeatherDisplay:10.37,2013-02-12 21:40:00,
2013-02-12 16:45:00,38.2,30.3,29.71,WSW,258,0.0,3.0,73,0.00,OVC,,0.00,WeatherDisplay:10.37,2013-02-12 21:45:00,
2013-02-12 16:50:00,38.0,30.5,29.71,SSE,165,0.0,1.0,74,0.00,OVC,,0.00,WeatherDisplay:10.37,2013-02-12 21:50:00,
2013-02-12 16:55:00,37.9,30.4,29.71,SE,146,0.0,0.0,74,0.00,OVC,,0.00,WeatherDisplay:10.37,2013-02-12 21:55:00,
2013-02-12 17:00:00,37.8,30.3,29.72,SSE,153,0.0,0.0,74,0.00,OVC,,0.00,WeatherDisplay:10.37,2013-02-12 22:00:00,
2013-02-12 17:05:00,37.7,30.2,29.72,South,188,0.0,0.0,74,0.00,OVC,,0.00,WeatherDisplay:10.37,2013-02-12 22:05:00,
2013-02-12 17:10:00,37.6,30.4,29.72,SSW,202,0.0,0.0,75,0.00,OVC,,0.00,WeatherDisplay:10.37,2013-02-12 22:10:00,
2013-02-12 17:20:00,37.3,30.4,29.72,SSW,202,0.0,0.0,76,0.00,BKN,,0.00,WeatherDisplay:10.37,2013-02-12 22:20:00,
2013-02-12 17:25:00,37.2,30.3,29.72,SSW,203,0.0,0.0,76,0.00,BKN,,0.00,WeatherDisplay:10.37,2013-02-12 22:25:00,
2013-02-12 17:30:00,37.1,30.2,29.72,SSW,210,0.0,1.0,76,0.00,BKN,,0.00,WeatherDisplay:10.37,2013-02-12 22:30:00,
2013-02-12 17:35:00,37.1,30.2,29.72,SW,225,0.0,3.0,76,0.00,BKN,,0.00,WeatherDisplay:10.37,2013-02-12 22:35:00,
2013-02-12 17:40:00,37.1,30.2,29.72,SW,232,0.0,1.0,76,0.00,BKN,,0.00,WeatherDisplay:10.37,2013-02-12 22:40:00,
2013-02-12 17:45:00,37.1,30.2,29.73,West,280,0.0,2.0,76,0.00,BKN,,0.00,WeatherDisplay:10.37,2013-02-12 22:45:00,
2013-02-12 17:50:00,37.0,30.1,29.72,WSW,255,0.0,0.0,76,0.00,BKN,,0.00,WeatherDisplay:10.37,2013-02-12 22:50:00,
2013-02-12 17:55:00,37.0,30.1,29.72,SSW,213,0.0,2.0,76,0.00,BKN,,0.00,WeatherDisplay:10.37,2013-02-12 22:55:00,
2013-02-12 18:00:00,36.9,30.0,29.71,SSW,211,0.0,2.0,76,0.00,BKN,,0.00,WeatherDisplay:10.37,2013-02-12 23:00:00,
2013-02-12 18:05:00,36.8,30.3,29.72,WSW,246,0.0,1.0,77,0.00,OVC,,0.00,WeatherDisplay:10.37,2013-02-12 23:05:00,
2013-02-12 18:10:00,36.6,29.7,29.72,West,262,0.0,0.0,76,0.00,OVC,,0.00,WeatherDisplay:10.37,2013-02-12 23:10:00,
2013-02-12 18:15:00,36.4,30.2,29.72,WSW,252,0.0,1.0,78,0.00,OVC,,0.00,WeatherDisplay:10.37,2013-02-12 23:15:00,
2013-02-12 18:20:00,36.3,29.8,29.72,WSW,246,0.0,0.0,77,0.00,OVC,,0.00,WeatherDisplay:10.37,2013-02-12 23:20:00,
2013-02-12 18:25:00,36.2,30.0,29.73,WSW,244,0.0,1.0,78,0.00,OVC,,0.00,WeatherDisplay:10.37,2013-02-12 23:25:00,
2013-02-12 18:30:00,36.2,30.0,29.72,WSW,243,0.0,0.0,78,0.00,OVC,,0.00,WeatherDisplay:10.37,2013-02-12 23:30:00,
2013-02-12 18:35:00,36.1,30.2,29.73,WSW,243,0.0,0.0,79,0.00,OVC,,0.00,WeatherDisplay:10.37,2013-02-12 23:35:00,
2013-02-12 18:40:00,35.9,30.0,29.73,WSW,243,0.0,0.0,79,0.00,OVC,,0.00,WeatherDisplay:10.37,2013-02-12 23:40:00,
2013-02-12 18:45:00,35.8,29.9,29.74,WSW,243,0.0,0.0,79,0.00,OVC,,0.00,WeatherDisplay:10.37,2013-02-12 23:45:00,
2013-02-12 18:50:00,35.9,30.0,29.75,West,271,0.0,5.0,79,0.00,OVC,,0.00,WeatherDisplay:10.37,2013-02-12 23:50:00,
2013-02-12 18:55:00,36.0,29.8,29.75,WNW,302,0.0,0.0,78,0.00,OVC,,0.00,WeatherDisplay:10.37,2013-02-12 23:55:00,
2013-02-12 19:00:00,35.9,30.0,29.75,NW,306,0.0,0.0,79,0.00,OVC,,0.00,WeatherDisplay:10.37,2013-02-13 00:00:00,
2013-02-12 19:05:00,35.9,30.0,29.75,NW,306,0.0,0.0,79,0.00,OVC,,0.00,WeatherDisplay:10.37,2013-02-13 00:05:00,
2013-02-12 19:10:00,35.8,29.6,29.75,NW,306,0.0,0.0,78,0.00,OVC,,0.00,WeatherDisplay:10.37,2013-02-13 00:10:00,
2013-02-12 19:15:00,35.8,30.2,29.76,West,279,0.0,2.0,80,0.00,OVC,,0.00,WeatherDisplay:10.37,2013-02-13 00:15:00,
2013-02-12 19:20:00,35.7,29.8,29.76,SW,226,0.0,0.0,79,0.00,OVC,,0.00,WeatherDisplay:10.37,2013-02-13 00:20:00,
2013-02-12 19:25:00,35.8,29.9,29.76,SW,231,0.0,2.0,79,0.00,OVC,,0.00,WeatherDisplay:10.37,2013-02-13 00:25:00,
2013-02-12 19:30:00,35.8,29.9,29.77,WSW,250,0.0,1.0,79,0.00,OVC,,0.00,WeatherDisplay:10.37,2013-02-13 00:30:00,
2013-02-12 19:35:00,35.9,30.0,29.77,WSW,254,0.0,1.0,79,0.00,OVC,,0.00,WeatherDisplay:10.37,2013-02-13 00:35:00,
2013-02-12 19:40:00,35.8,29.6,29.78,WSW,237,0.0,1.0,78,0.00,OVC,,0.00,WeatherDisplay:10.37,2013-02-13 00:40:00,
2013-02-12 19:45:00,35.9,30.0,29.79,SW,216,0.0,0.0,79,0.00,OVC,,0.00,WeatherDisplay:10.37,2013-02-13 00:45:00,
2013-02-12 19:55:00,36.0,29.8,29.80,SSW,200,0.0,2.0,78,0.00,OVC,,0.00,WeatherDisplay:10.37,2013-02-13 00:55:00,
2013-02-12 20:00:00,36.1,29.6,29.80,WSW,241,2.0,4.0,77,0.00,OVC,,0.00,WeatherDisplay:10.37,2013-02-13 01:00:00,
2013-02-12 20:05:00,36.2,29.7,29.80,West,262,0.0,0.0,77,0.00,BKN,,0.00,WeatherDisplay:10.37,2013-02-13 01:05:00,
2013-02-12 20:10:00,36.2,29.7,29.81,West,280,0.0,2.0,77,0.00,BKN,,0.00,WeatherDisplay:10.37,2013-02-13 01:10:00,
2013-02-12 20:15:00,36.3,29.5,29.82,West,261,1.0,3.0,76,0.00,BKN,,0.00,WeatherDisplay:10.37,2013-02-13 01:15:00,
2013-02-12 20:20:00,36.4,29.9,29.82,SW,222,0.0,8.0,77,0.00,BKN,,0.00,WeatherDisplay:10.37,2013-02-13 01:20:00,
2013-02-12 20:25:00,36.5,29.3,29.82,SW,215,0.0,7.0,75,0.00,BKN,,0.00,WeatherDisplay:10.37,2013-02-13 01:25:00,
2013-02-12 20:30:00,36.7,29.5,29.83,SW,218,0.0,3.0,75,0.00,BKN,,0.00,WeatherDisplay:10.37,2013-02-13 01:30:00,
2013-02-12 20:35:00,36.8,29.3,29.83,SW,219,0.0,5.0,74,0.00,BKN,,0.00,WeatherDisplay:10.37,2013-02-13 01:35:00,
2013-02-12 20:40:00,36.8,29.6,29.84,SW,229,0.0,1.0,75,0.00,BKN,,0.00,WeatherDisplay:10.37,2013-02-13 01:40:00,
2013-02-12 20:45:00,36.8,29.6,29.84,SW,219,0.0,5.0,75,0.00,BKN,,0.00,WeatherDisplay:10.37,2013-02-13 01:45:00,
2013-02-12 20:50:00,36.7,29.5,29.84,South,178,0.0,0.0,75,0.00,BKN,,0.00,WeatherDisplay:10.37,2013-02-13 01:50:00,
2013-02-12 20:55:00,36.6,29.4,29.84,SSW,198,0.0,3.0,75,0.00,BKN,,0.00,WeatherDisplay:10.37,2013-02-13 01:55:00,
2013-02-12 21:00:00,36.5,29.7,29.84,SSW,205,0.0,3.0,76,0.00,BKN,,0.00,WeatherDisplay:10.37,2013-02-13 02:00:00,
2013-02-12 21:05:00,36.4,29.6,29.84,South,177,0.0,2.0,76,0.00,OVC,,0.00,WeatherDisplay:10.37,2013-02-13 02:05:00,
2013-02-12 21:10:00,36.3,29.5,29.84,SSW,199,0.0,3.0,76,0.00,OVC,,0.00,WeatherDisplay:10.37,2013-02-13 02:10:00,
2013-02-12 21:15:00,36.3,29.1,29.84,WSW,250,0.0,2.0,75,0.00,OVC,,0.00,WeatherDisplay:10.37,2013-02-13 02:15:00,
2013-02-12 21:20:00,36.2,29.0,29.84,West,260,1.0,5.0,75,0.00,OVC,,0.00,WeatherDisplay:10.37,2013-02-13 02:20:00,
2013-02-12 21:25:00,36.2,29.1,29.83,West,265,5.0,9.0,75,0.00,OVC,,0.00,WeatherDisplay:10.37,2013-02-13 02:25:00,
2013-02-12 21:30:00,36.4,29.6,29.83,SW,227,0.0,3.0,76,0.00,OVC,,0.00,WeatherDisplay:10.37,2013-02-13 02:30:00,
2013-02-12 21:35:00,36.3,29.1,29.83,SSW,197,0.0,2.0,75,0.00,OVC,,0.00,WeatherDisplay:10.37,2013-02-13 02:35:00,
2013-02-12 21:40:00,36.1,28.9,29.82,South,169,0.0,3.0,75,0.00,OVC,,0.00,WeatherDisplay:10.37,2013-02-13 02:40:00,
2013-02-12 21:45:00,36.1,28.6,29.82,SSW,200,0.0,5.0,74,0.00,OVC,,0.00,WeatherDisplay:10.37,2013-02-13 02:45:00,
2013-02-12 21:50:00,36.1,29.0,29.81,SW,216,0.0,1.0,75,0.00,OVC,,0.00,WeatherDisplay:10.37,2013-02-13 02:50:00,
2013-02-12 21:55:00,36.1,29.3,29.81,WSW,242,0.0,0.0,76,0.00,OVC,,0.00,WeatherDisplay:10.37,2013-02-13 02:55:00,
2013-02-12 22:00:00,36.0,28.5,29.81,WSW,251,0.0,2.0,74,0.00,OVC,,0.00,WeatherDisplay:10.37,2013-02-13 03:00:00,
2013-02-12 22:05:00,36.0,28.8,29.81,West,262,0.0,0.0,75,0.00,OVC,,0.00,WeatherDisplay:10.37,2013-02-13 03:05:00,
2013-02-12 22:10:00,35.9,28.8,29.81,NW,306,0.0,0.0,75,0.00,OVC,,0.00,WeatherDisplay:10.37,2013-02-13 03:10:00,
2013-02-12 22:15:00,35.8,28.6,29.81,WNW,301,0.0,3.0,75,0.00,OVC,,0.00,WeatherDisplay:10.37,2013-02-13 03:15:00,
2013-02-12 22:20:00,35.7,28.9,29.81,SW,228,1.0,4.0,76,0.00,OVC,,0.00,WeatherDisplay:10.37,2013-02-13 03:20:00,
2013-02-12 22:25:00,35.6,28.8,29.81,SSW,206,0.0,2.0,76,0.00,OVC,,0.00,WeatherDisplay:10.37,2013-02-13 03:25:00,
2013-02-12 22:30:00,35.5,28.7,29.81,SSW,207,2.0,8.0,76,0.00,OVC,,0.00,WeatherDisplay:10.37,2013-02-13 03:30:00,
2013-02-12 22:35:00,35.5,28.4,29.81,WSW,257,0.0,2.0,75,0.00,OVC,,0.00,WeatherDisplay:10.37,2013-02-13 03:35:00,
2013-02-12 22:40:00,35.6,28.5,29.81,WNW,285,0.0,3.0,75,0.00,OVC,,0.00,WeatherDisplay:10.37,2013-02-13 03:40:00,
2013-02-12 22:45:00,35.6,28.5,29.81,West,268,1.0,6.0,75,0.00,OVC,,0.00,WeatherDisplay:10.37,2013-02-13 03:45:00,
2013-02-12 22:50:00,35.6,28.1,29.81,WSW,248,0.0,0.0,74,0.00,OVC,,0.00,WeatherDisplay:10.37,2013-02-13 03:50:00,
2013-02-12 22:55:00,35.6,28.1,29.81,WSW,239,0.0,3.0,74,0.00,OVC,,0.00,WeatherDisplay:10.37,2013-02-13 03:55:00,
2013-02-12 23:00:00,35.7,28.5,29.81,West,259,0.0,2.0,75,0.00,OVC,,0.00,WeatherDisplay:10.37,2013-02-13 04:00:00,
2013-02-12 23:05:00,35.6,28.5,29.81,West,261,0.0,3.0,75,0.00,OVC,,0.00,WeatherDisplay:10.37,2013-02-13 04:05:00,
2013-02-12 23:10:00,35.5,28.4,29.80,WSW,248,0.0,0.0,75,0.00,OVC,,0.00,WeatherDisplay:10.37,2013-02-13 04:10:00,
2013-02-12 23:15:00,35.5,28.3,29.80,SW,231,0.0,5.0,75,0.00,OVC,,0.00,WeatherDisplay:10.37,2013-02-13 04:15:00,
2013-02-12 23:25:00,35.4,28.3,29.80,SW,233,0.0,4.0,75,0.00,OVC,,0.00,WeatherDisplay:10.37,2013-02-13 04:25:00,
2013-02-12 23:30:00,35.4,28.6,29.81,West,265,0.0,0.0,76,0.00,OVC,,0.00,WeatherDisplay:10.37,2013-02-13 04:30:00,
2013-02-12 23:35:00,35.3,28.2,29.81,West,274,0.0,4.0,75,0.00,OVC,,0.00,WeatherDisplay:10.37,2013-02-13 04:35:00,
2013-02-12 23:40:00,35.3,28.2,29.81,WNW,285,0.0,3.0,75,0.00,OVC,,0.00,WeatherDisplay:10.37,2013-02-13 04:40:00,
2013-02-12 23:45:00,35.3,28.2,29.81,WNW,298,0.0,0.0,75,0.00,OVC,,0.00,WeatherDisplay:10.37,2013-02-13 04:45:00,
2013-02-12 23:50:00,35.2,28.1,29.81,West,280,2.0,3.0,75,0.00,OVC,,0.00,WeatherDisplay:10.37,2013-02-13 04:50:00,